createdAt,value
2023-03-31T00:01:47.109Z,2.13
2023-03-31T00:04:53.398Z,2.17
2023-03-31T00:08:00.997Z,1.88
2023-03-31T00:11:07.426Z,2.30
2023-03-31T00:14:10.925Z,1.85
2023-03-31T00:17:13.872Z,1.83
2023-03-31T00:20:17.242Z,2.03
2023-03-31T00:23:28.072Z,2.42
2023-03-31T00:26:33.089Z,1.73
2023-03-31T00:29:36.152Z,2.03
2023-03-31T00:32:39.344Z,2.08
2023-03-31T00:35:43.590Z,2.13
2023-03-31T00:38:46.946Z,1.90
2023-03-31T00:41:51.421Z,2.30
2023-03-31T00:45:24.015Z,2.25
2023-03-31T00:48:27.679Z,1.65
2023-03-31T00:51:34.267Z,1.92
2023-03-31T00:54:39.261Z,2.10
2023-03-31T00:57:48.036Z,1.83
2023-03-31T01:00:53.320Z,2.22
2023-03-31T01:03:57.413Z,1.80
2023-03-31T01:07:09.240Z,1.98
2023-03-31T01:10:13.335Z,1.80
2023-03-31T01:13:19.576Z,2.45
2023-03-31T01:16:22.626Z,2.10
2023-03-31T01:19:34.339Z,1.83
2023-03-31T01:23:16.951Z,1.80
2023-03-31T01:26:46.481Z,1.88
2023-03-31T01:30:37.212Z,1.95
2023-03-31T01:34:08.443Z,1.60
2023-03-31T01:37:31.408Z,1.83
2023-03-31T01:41:01.825Z,2.08
2023-03-31T01:44:11.274Z,1.85
2023-03-31T01:47:22.754Z,1.83
2023-03-31T01:50:32.391Z,2.10
2023-03-31T01:53:43.919Z,1.90
2023-03-31T01:56:56.039Z,1.60
2023-03-31T02:00:07.362Z,1.70
2023-03-31T02:03:19.057Z,1.80
2023-03-31T02:06:27.346Z,1.60
2023-03-31T02:09:35.269Z,1.60
2023-03-31T02:12:43.595Z,1.60
2023-03-31T02:15:51.810Z,1.77
2023-03-31T02:19:02.376Z,1.45
2023-03-31T02:22:08.925Z,1.52
2023-03-31T02:25:14.030Z,1.55
2023-03-31T02:28:22.171Z,1.27
2023-03-31T02:31:31.003Z,1.35
2023-03-31T02:34:34.057Z,1.65
2023-03-31T02:37:37.690Z,1.58
2023-03-31T02:40:41.711Z,1.63
2023-03-31T02:43:46.241Z,1.83
2023-03-31T02:46:50.363Z,1.38
2023-03-31T02:49:56.948Z,1.50
2023-03-31T02:53:07.609Z,1.38
2023-03-31T02:56:26.438Z,1.90
2023-03-31T02:59:42.439Z,1.70
2023-03-31T03:03:02.369Z,1.50
2023-03-31T03:06:13.665Z,1.70
2023-03-31T03:09:31.931Z,1.80
2023-03-31T03:12:41.509Z,1.40
2023-03-31T03:15:50.302Z,1.50
2023-03-31T03:19:00.348Z,1.50
2023-03-31T03:22:03.264Z,1.42
2023-03-31T03:25:07.135Z,1.48
2023-03-31T03:28:10.030Z,1.58
2023-03-31T03:31:15.695Z,1.48
2023-03-31T03:34:20.061Z,1.60
2023-03-31T03:37:22.902Z,1.60
2023-03-31T03:40:25.977Z,1.38
2023-03-31T03:43:28.908Z,1.27
2023-03-31T03:46:33.216Z,1.50
2023-03-31T03:49:36.154Z,1.40
2023-03-31T03:52:39.216Z,1.58
2023-03-31T03:55:42.473Z,1.50
2023-03-31T03:58:45.376Z,1.25
2023-03-31T04:01:49.766Z,1.35
2023-03-31T04:04:52.875Z,1.33
2023-03-31T04:07:55.814Z,1.45
2023-03-31T04:10:58.775Z,1.55
2023-03-31T04:14:01.719Z,1.60
2023-03-31T04:17:06.037Z,1.45
2023-03-31T04:20:11.561Z,1.50
2023-03-31T04:23:15.092Z,1.40
2023-03-31T04:26:26.667Z,1.42
2023-03-31T04:29:33.619Z,1.25
2023-03-31T04:32:38.293Z,1.20
2023-03-31T04:35:48.702Z,1.35
2023-03-31T04:38:54.920Z,1.50
2023-03-31T04:41:58.669Z,1.60
2023-03-31T04:45:01.578Z,1.50
2023-03-31T04:48:06.280Z,1.30
2023-03-31T04:51:10.626Z,1.33
2023-03-31T04:54:13.586Z,1.30
2023-03-31T04:57:16.530Z,1.38
2023-03-31T05:00:20.961Z,1.27
2023-03-31T05:03:25.573Z,1.40
2023-03-31T05:06:28.582Z,1.30
2023-03-31T05:09:32.612Z,1.30
2023-03-31T05:12:36.552Z,1.60
2023-03-31T05:15:40.289Z,1.40
2023-03-31T05:18:44.703Z,1.60
2023-03-31T05:21:47.625Z,1.17
2023-03-31T05:24:50.523Z,1.08
2023-03-31T05:27:53.401Z,1.23
2023-03-31T05:30:56.301Z,1.33
2023-03-31T05:34:00.565Z,1.10
2023-03-31T05:37:03.439Z,1.15
2023-03-31T05:40:08.221Z,1.30
2023-03-31T05:43:11.310Z,1.15
2023-03-31T05:46:14.580Z,1.50
2023-03-31T05:49:18.970Z,1.10
2023-03-31T05:52:21.967Z,1.00
2023-03-31T05:55:24.887Z,1.27
2023-03-31T05:58:28.054Z,1.42
2023-03-31T06:01:31.025Z,1.23
2023-03-31T06:04:35.412Z,1.30
2023-03-31T06:07:38.372Z,1.27
2023-03-31T06:10:42.864Z,1.17
2023-03-31T06:13:46.046Z,1.20
2023-03-31T06:16:49.437Z,1.40
2023-03-31T06:19:53.675Z,1.30
2023-03-31T06:22:56.592Z,1.30
2023-03-31T06:26:02.625Z,1.38
2023-03-31T06:29:05.604Z,1.10
2023-03-31T06:32:08.770Z,1.27
2023-03-31T06:35:13.075Z,1.48
2023-03-31T06:38:16.118Z,1.50
2023-03-31T06:41:20.585Z,1.45
2023-03-31T06:44:24.669Z,1.20
2023-03-31T06:47:27.876Z,1.25
2023-03-31T06:50:32.214Z,1.40
2023-03-31T06:53:35.766Z,1.25
2023-03-31T06:56:38.606Z,1.20
2023-03-31T06:59:41.602Z,1.20
2023-03-31T07:02:44.624Z,1.17
2023-03-31T07:05:51.138Z,1.58
2023-03-31T07:08:54.011Z,1.27
2023-03-31T07:11:57.044Z,1.23
2023-03-31T07:14:59.981Z,2.83
2023-03-31T07:18:03.031Z,2.47
2023-03-31T07:21:09.699Z,1.50
2023-03-31T07:24:13.192Z,1.77
2023-03-31T07:27:16.090Z,1.85
2023-03-31T07:30:20.944Z,1.50
2023-03-31T07:33:23.915Z,1.58
2023-03-31T07:36:28.324Z,1.67
2023-03-31T07:39:31.279Z,1.50
2023-03-31T07:42:35.071Z,1.40
2023-03-31T07:45:41.099Z,1.58
2023-03-31T07:48:44.059Z,1.58
2023-03-31T07:51:48.299Z,1.58
2023-03-31T07:54:51.349Z,2.13
2023-03-31T07:57:54.329Z,1.20
2023-03-31T08:00:57.368Z,1.42
2023-03-31T08:04:01.056Z,1.63
2023-03-31T08:07:05.994Z,1.40
2023-03-31T08:10:12.410Z,1.58
2023-03-31T08:13:15.459Z,1.20
2023-03-31T08:16:18.670Z,1.83
2023-03-31T08:19:22.204Z,1.60
2023-03-31T08:22:26.524Z,1.45
2023-03-31T08:25:29.471Z,1.45
2023-03-31T08:28:32.341Z,1.65
2023-03-31T08:31:35.264Z,1.38
2023-03-31T08:34:38.289Z,1.27
2023-03-31T08:37:42.611Z,1.45
2023-03-31T08:40:45.561Z,1.40
2023-03-31T08:43:50.363Z,1.35
2023-03-31T08:46:56.469Z,1.40
2023-03-31T08:50:04.236Z,1.20
2023-03-31T08:53:14.914Z,1.00
2023-03-31T08:56:20.180Z,1.40
2023-03-31T08:59:28.577Z,1.23
2023-03-31T09:02:44.265Z,1.60
2023-03-31T09:06:00.914Z,1.80
2023-03-31T09:09:11.242Z,1.42
2023-03-31T09:12:21.657Z,1.52
2023-03-31T09:15:28.272Z,1.55
2023-03-31T09:18:35.410Z,1.88
2023-03-31T09:21:42.924Z,2.30
2023-03-31T09:24:59.898Z,1.55
2023-03-31T09:28:06.025Z,1.42
2023-03-31T09:31:15.952Z,2.78
2023-03-31T09:34:25.946Z,1.58
2023-03-31T09:37:32.764Z,1.38
2023-03-31T09:40:36.997Z,1.70
2023-03-31T09:43:42.181Z,1.10
2023-03-31T09:46:45.231Z,1.58
2023-03-31T09:49:53.361Z,1.55
2023-03-31T09:52:58.982Z,2.38
2023-03-31T09:56:06.378Z,1.70
2023-03-31T09:59:15.728Z,1.70
2023-03-31T10:02:30.895Z,3.50
2023-03-31T10:05:36.342Z,6.93
2023-03-31T10:08:42.594Z,10.65
2023-03-31T10:11:58.892Z,13.45
2023-03-31T10:15:19.971Z,16.73
2023-03-31T10:18:34.394Z,17.80
2023-03-31T10:21:39.115Z,16.75
2023-03-31T10:24:43.631Z,16.00
2023-03-31T10:27:51.165Z,13.68
2023-03-31T10:30:55.697Z,15.38
2023-03-31T10:33:59.796Z,9.18
2023-03-31T10:37:07.277Z,10.27
2023-03-31T10:40:16.410Z,10.52
2023-03-31T10:43:23.049Z,9.55
2023-03-31T10:46:42.581Z,7.55
2023-03-31T10:49:48.936Z,7.57
2023-03-31T10:52:51.898Z,9.43
2023-03-31T10:56:07.886Z,7.82
2023-03-31T10:59:38.677Z,8.02
2023-03-31T11:03:31.251Z,8.55
2023-03-31T11:06:46.667Z,7.68
2023-03-31T11:10:03.813Z,7.15
2023-03-31T11:13:12.570Z,6.95
2023-03-31T11:16:26.663Z,6.97
2023-03-31T11:19:38.086Z,7.15
2023-03-31T11:22:48.365Z,6.90
2023-03-31T11:26:02.419Z,6.25
2023-03-31T11:29:16.598Z,6.60
2023-03-31T11:32:35.842Z,6.90
2023-03-31T11:35:54.455Z,6.57
2023-03-31T11:39:09.786Z,7.03
2023-03-31T11:42:18.432Z,5.80
2023-03-31T11:45:26.562Z,5.15
2023-03-31T11:48:38.341Z,6.50
2023-03-31T11:51:48.993Z,6.50
2023-03-31T11:54:56.859Z,5.75
2023-03-31T11:58:05.657Z,5.28
2023-03-31T12:01:14.491Z,5.38
2023-03-31T12:04:30.973Z,6.18
2023-03-31T12:07:40.735Z,7.05
2023-03-31T12:10:49.295Z,5.43
2023-03-31T12:13:55.618Z,5.90
2023-03-31T12:17:03.367Z,5.53
2023-03-31T12:20:16.072Z,5.75
2023-03-31T12:23:21.663Z,5.20
2023-03-31T12:26:36.860Z,4.47
2023-03-31T12:29:44.228Z,4.65
2023-03-31T12:32:51.007Z,5.95
2023-03-31T12:36:28.162Z,5.45
2023-03-31T12:39:39.810Z,5.00
2023-03-31T12:42:55.922Z,5.30
2023-03-31T12:46:14.776Z,5.10
2023-03-31T12:49:29.420Z,5.35
2023-03-31T12:52:45.960Z,5.15
2023-03-31T12:55:51.978Z,4.40
2023-03-31T12:58:55.036Z,4.32
2023-03-31T13:02:20.935Z,4.18
2023-03-31T13:05:48.350Z,4.45
2023-03-31T13:08:55.171Z,3.92
2023-03-31T13:11:58.147Z,4.43
2023-03-31T13:15:06.045Z,4.32
2023-03-31T13:18:19.472Z,4.10
2023-03-31T13:21:23.101Z,4.68
2023-03-31T13:24:28.802Z,4.70
2023-03-31T13:27:34.282Z,4.22
2023-03-31T13:30:52.803Z,4.72
2023-03-31T13:33:59.006Z,4.30
2023-03-31T13:37:18.749Z,4.30
2023-03-31T13:40:43.778Z,4.50
2023-03-31T13:44:16.370Z,3.95
2023-03-31T13:47:50.801Z,4.18
2023-03-31T13:51:19.229Z,3.65
2023-03-31T13:54:54.148Z,5.00
2023-03-31T13:58:35.047Z,4.20
2023-03-31T14:01:51.825Z,4.10
2023-03-31T14:05:09.445Z,3.88
2023-03-31T14:08:16.190Z,4.07
2023-03-31T14:11:24.071Z,3.78
2023-03-31T14:14:29.852Z,3.80
2023-03-31T14:17:36.919Z,3.97
2023-03-31T14:20:50.653Z,4.15
2023-03-31T14:24:02.069Z,3.80
2023-03-31T14:27:18.455Z,4.15
2023-03-31T14:30:31.763Z,4.05
2023-03-31T14:33:44.282Z,3.60
2023-03-31T14:36:57.736Z,3.30
2023-03-31T14:40:05.709Z,3.67
2023-03-31T14:43:18.715Z,3.80
2023-03-31T14:46:23.836Z,3.25
2023-03-31T14:49:28.942Z,3.33
2023-03-31T14:52:35.548Z,2.83
2023-03-31T14:55:54.427Z,3.60
2023-03-31T14:59:03.234Z,3.47
2023-03-31T15:02:16.379Z,3.40
2023-03-31T15:05:27.381Z,3.20
2023-03-31T15:08:32.565Z,3.10
2023-03-31T15:11:35.988Z,3.10
2023-03-31T15:14:44.628Z,3.10
2023-03-31T15:17:49.356Z,4.07
2023-03-31T15:20:52.307Z,3.47
2023-03-31T15:23:57.051Z,3.15
2023-03-31T15:27:04.956Z,3.45
2023-03-31T15:30:10.346Z,2.90
2023-03-31T15:33:21.378Z,3.55
2023-03-31T15:36:24.553Z,2.80
2023-03-31T15:39:31.284Z,3.95
2023-03-31T15:42:35.903Z,2.95
2023-03-31T15:45:51.342Z,3.15
2023-03-31T15:48:57.046Z,3.03
2023-03-31T15:52:02.334Z,3.08
2023-03-31T15:55:26.731Z,3.28
2023-03-31T15:58:55.265Z,2.90
2023-03-31T16:02:01.095Z,2.90
2023-03-31T16:05:10.927Z,3.45
2023-03-31T16:08:28.623Z,3.20
2023-03-31T16:11:40.272Z,3.10
2023-03-31T16:14:49.228Z,2.78
2023-03-31T16:17:54.882Z,3.03
2023-03-31T16:21:02.502Z,3.17
2023-03-31T16:24:06.436Z,2.72
2023-03-31T16:27:09.543Z,3.28
2023-03-31T16:30:15.228Z,2.65
2023-03-31T16:33:19.638Z,2.83
2023-03-31T16:36:24.300Z,3.30
2023-03-31T16:39:27.605Z,2.70
2023-03-31T16:42:32.642Z,2.88
2023-03-31T16:45:35.609Z,3.13
2023-03-31T16:48:38.584Z,2.60
2023-03-31T16:51:42.894Z,3.00
2023-03-31T16:54:45.753Z,2.85
2023-03-31T16:57:49.182Z,2.38
2023-03-31T17:00:53.132Z,2.63
2023-03-31T17:03:56.519Z,2.83
2023-03-31T17:07:00.853Z,3.03
2023-03-31T17:10:03.801Z,2.30
2023-03-31T17:13:07.036Z,2.40
2023-03-31T17:16:18.636Z,2.85
2023-03-31T17:19:27.684Z,2.33
2023-03-31T17:22:32.649Z,2.95
2023-03-31T17:25:36.233Z,3.15
2023-03-31T17:28:39.494Z,3.25
2023-03-31T17:31:42.435Z,2.63
2023-03-31T17:34:45.425Z,2.33
2023-03-31T17:37:53.532Z,2.28
2023-03-31T17:40:56.545Z,2.70
2023-03-31T17:43:59.600Z,2.47
2023-03-31T17:47:02.754Z,2.53
2023-03-31T17:50:06.455Z,2.30
2023-03-31T17:53:10.791Z,2.45
2023-03-31T17:56:14.733Z,2.30
2023-03-31T17:59:18.177Z,2.60
2023-03-31T18:02:21.171Z,2.22
2023-03-31T18:05:24.120Z,3.03
2023-03-31T18:08:28.388Z,2.20
2023-03-31T18:11:31.924Z,2.28
2023-03-31T18:14:34.862Z,2.42
2023-03-31T18:17:37.869Z,2.65
2023-03-31T18:20:41.262Z,2.30
2023-03-31T18:23:46.323Z,2.13
2023-03-31T18:26:49.402Z,2.20
2023-03-31T18:29:52.284Z,2.25
2023-03-31T18:32:55.723Z,2.50
2023-03-31T18:35:59.376Z,3.00
2023-03-31T18:39:04.086Z,2.15
2023-03-31T18:42:07.733Z,2.20
2023-03-31T18:45:11.147Z,2.35
2023-03-31T18:48:14.643Z,2.10
2023-03-31T18:51:17.669Z,2.40
2023-03-31T18:54:22.587Z,2.08
2023-03-31T18:57:26.026Z,2.10
2023-03-31T19:00:29.771Z,2.30
2023-03-31T19:03:44.424Z,2.22
2023-03-31T19:06:47.337Z,2.10
2023-03-31T19:09:50.329Z,2.15
2023-03-31T19:12:53.263Z,2.00
2023-03-31T19:15:56.333Z,2.35
2023-03-31T19:19:00.666Z,2.30
2023-03-31T19:22:03.737Z,2.08
2023-03-31T19:25:07.574Z,2.30
2023-03-31T19:28:10.501Z,2.40
2023-03-31T19:31:13.519Z,1.90
2023-03-31T19:34:17.852Z,2.20
2023-03-31T19:37:21.138Z,1.77
2023-03-31T19:40:24.475Z,2.15
2023-03-31T19:43:29.436Z,2.13
2023-03-31T19:46:33.675Z,1.98
2023-03-31T19:49:38.081Z,2.28
2023-03-31T19:52:41.008Z,1.92
2023-03-31T19:55:44.117Z,1.98
2023-03-31T19:58:48.158Z,2.40
2023-03-31T20:01:51.612Z,2.30
2023-03-31T20:04:55.961Z,2.00
2023-03-31T20:07:58.975Z,2.35
2023-03-31T20:11:02.304Z,2.10
2023-03-31T20:14:05.436Z,2.15
2023-03-31T20:17:08.451Z,2.25
2023-03-31T20:20:13.352Z,2.45
2023-03-31T20:23:16.236Z,2.45
2023-03-31T20:26:21.482Z,1.70
2023-03-31T20:29:25.083Z,1.92
2023-03-31T20:32:28.021Z,1.98
2023-03-31T20:35:32.450Z,2.22
2023-03-31T20:38:37.149Z,2.10
2023-03-31T20:41:40.216Z,2.17
2023-03-31T20:44:43.093Z,1.95
2023-03-31T20:47:46.726Z,1.90
2023-03-31T20:50:51.486Z,2.00
2023-03-31T20:53:55.559Z,2.35
2023-03-31T20:57:01.014Z,1.80
2023-03-31T21:00:04.326Z,2.28
2023-03-31T21:03:07.550Z,1.92
2023-03-31T21:06:14.168Z,2.00
2023-03-31T21:09:17.929Z,1.80
2023-03-31T21:12:20.878Z,2.10
2023-03-31T21:15:23.826Z,1.60
2023-03-31T21:18:27.597Z,1.60
2023-03-31T21:21:31.898Z,1.90
2023-03-31T21:24:35.139Z,1.88
2023-03-31T21:27:37.997Z,2.05
2023-03-31T21:30:41.103Z,2.13
2023-03-31T21:33:45.014Z,2.20
2023-03-31T21:36:50.042Z,1.50
2023-03-31T21:39:52.919Z,1.67
2023-03-31T21:42:55.958Z,2.22
2023-03-31T21:45:59.598Z,1.70
2023-03-31T21:49:03.205Z,1.98
2023-03-31T21:52:07.611Z,1.92
2023-03-31T21:55:10.972Z,1.75
2023-03-31T21:58:13.837Z,1.90
2023-03-31T22:01:16.778Z,1.90
2023-03-31T22:04:19.668Z,1.83
2023-03-31T22:07:24.270Z,1.92
2023-03-31T22:10:27.492Z,2.10
2023-03-31T22:13:30.917Z,1.75
2023-03-31T22:16:33.879Z,1.83
2023-03-31T22:19:37.343Z,2.08
2023-03-31T22:22:41.824Z,1.85
2023-03-31T22:25:44.911Z,1.90
2023-03-31T22:28:47.832Z,1.55
2023-03-31T22:31:50.872Z,1.75
2023-03-31T22:34:53.792Z,1.83
2023-03-31T22:37:58.075Z,1.88
2023-03-31T22:41:01.616Z,1.70
2023-03-31T22:44:04.717Z,1.90
2023-03-31T22:47:08.060Z,1.50
2023-03-31T22:50:12.131Z,1.98
2023-03-31T22:53:16.755Z,1.73
2023-03-31T22:56:20.366Z,1.92
2023-03-31T22:59:23.327Z,1.58
2023-03-31T23:02:26.391Z,1.75
2023-03-31T23:05:29.458Z,1.52
2023-03-31T23:08:35.697Z,1.98
2023-03-31T23:11:38.981Z,1.70
2023-03-31T23:14:41.950Z,1.80
2023-03-31T23:17:44.834Z,1.70
2023-03-31T23:20:47.742Z,2.05
2023-03-31T23:23:53.807Z,1.88
2023-03-31T23:26:56.785Z,1.80
2023-03-31T23:29:59.665Z,1.90
2023-03-31T23:33:02.612Z,2.00
2023-03-31T23:36:07.605Z,1.42
2023-03-31T23:39:11.984Z,1.73
2023-03-31T23:42:19.680Z,1.63
2023-03-31T23:45:22.619Z,1.90
2023-03-31T23:48:25.629Z,1.60
2023-03-31T23:51:28.623Z,1.45
2023-03-31T23:54:32.851Z,1.50
2023-03-31T23:57:35.758Z,1.88
